sensor_id;sensor_type;location;lat;lon;timestamp;pressure;altitude;pressure_sealevel;temperature
48003;BMP280;33768;48.578;11.574;2023-12-28T00:00:11;96628.78;;;1.77
48003;BMP280;33768;48.578;11.574;2023-12-28T00:03:15;96633.41;;;1.76
48003;BMP280;33768;48.578;11.574;2023-12-28T00:06:20;96627.19;;;1.70
48003;BMP280;33768;48.578;11.574;2023-12-28T00:09:24;96626.25;;;1.73
48003;BMP280;33768;48.578;11.574;2023-12-28T00:12:28;96635.84;;;1.74
48003;BMP280;33768;48.578;11.574;2023-12-28T00:15:32;96640.94;;;1.72
48003;BMP280;33768;48.578;11.574;2023-12-28T00:18:38;96634.72;;;1.66
48003;BMP280;33768;48.578;11.574;2023-12-28T00:21:42;96626.81;;;1.63
48003;BMP280;33768;48.578;11.574;2023-12-28T00:24:46;96634.03;;;1.57
48003;BMP280;33768;48.578;11.574;2023-12-28T00:27:50;96642.47;;;1.50
48003;BMP280;33768;48.578;11.574;2023-12-28T00:30:55;96634.09;;;1.48
48003;BMP280;33768;48.578;11.574;2023-12-28T00:33:59;96631.31;;;1.43
48003;BMP280;33768;48.578;11.574;2023-12-28T00:37:03;96633.47;;;1.39
48003;BMP280;33768;48.578;11.574;2023-12-28T00:40:08;96639.56;;;1.39
48003;BMP280;33768;48.578;11.574;2023-12-28T00:43:13;96646.91;;;1.39
48003;BMP280;33768;48.578;11.574;2023-12-28T00:46:17;96645.41;;;1.38
48003;BMP280;33768;48.578;11.574;2023-12-28T00:49:21;96643.41;;;1.47
48003;BMP280;33768;48.578;11.574;2023-12-28T00:52:25;96634.00;;;1.43
48003;BMP280;33768;48.578;11.574;2023-12-28T00:55:30;96650.69;;;1.32
48003;BMP280;33768;48.578;11.574;2023-12-28T00:58:34;96644.56;;;1.32
48003;BMP280;33768;48.578;11.574;2023-12-28T01:01:38;96633.63;;;1.35
48003;BMP280;33768;48.578;11.574;2023-12-28T01:04:42;96628.97;;;1.36
48003;BMP280;33768;48.578;11.574;2023-12-28T01:07:47;96643.44;;;1.38
48003;BMP280;33768;48.578;11.574;2023-12-28T01:10:51;96650.03;;;1.37
48003;BMP280;33768;48.578;11.574;2023-12-28T01:13:55;96646.97;;;1.30
48003;BMP280;33768;48.578;11.574;2023-12-28T01:17:01;96656.25;;;1.29
48003;BMP280;33768;48.578;11.574;2023-12-28T01:20:07;96665.78;;;1.30
48003;BMP280;33768;48.578;11.574;2023-12-28T01:23:12;96666.69;;;1.27
48003;BMP280;33768;48.578;11.574;2023-12-28T01:26:16;96665.38;;;1.23
48003;BMP280;33768;48.578;11.574;2023-12-28T01:29:21;96678.09;;;1.22
48003;BMP280;33768;48.578;11.574;2023-12-28T01:32:25;96667.97;;;1.17
48003;BMP280;33768;48.578;11.574;2023-12-28T01:35:30;96667.53;;;1.19
48003;BMP280;33768;48.578;11.574;2023-12-28T01:38:36;96683.50;;;1.13
48003;BMP280;33768;48.578;11.574;2023-12-28T01:41:40;96688.03;;;1.07
48003;BMP280;33768;48.578;11.574;2023-12-28T01:44:45;96686.59;;;0.97
48003;BMP280;33768;48.578;11.574;2023-12-28T01:47:52;96688.09;;;0.98
48003;BMP280;33768;48.578;11.574;2023-12-28T01:50:58;96675.56;;;0.95
48003;BMP280;33768;48.578;11.574;2023-12-28T01:54:02;96676.75;;;0.94
48003;BMP280;33768;48.578;11.574;2023-12-28T01:57:07;96672.25;;;1.00
48003;BMP280;33768;48.578;11.574;2023-12-28T02:00:13;96678.19;;;1.04
48003;BMP280;33768;48.578;11.574;2023-12-28T02:03:17;96682.63;;;1.16
48003;BMP280;33768;48.578;11.574;2023-12-28T02:06:23;96677.88;;;1.34
48003;BMP280;33768;48.578;11.574;2023-12-28T02:09:28;96675.56;;;1.42
48003;BMP280;33768;48.578;11.574;2023-12-28T02:12:32;96666.75;;;1.41
48003;BMP280;33768;48.578;11.574;2023-12-28T02:15:37;96660.03;;;1.60
48003;BMP280;33768;48.578;11.574;2023-12-28T02:18:43;96662.38;;;1.81
48003;BMP280;33768;48.578;11.574;2023-12-28T02:21:49;96664.91;;;1.99
48003;BMP280;33768;48.578;11.574;2023-12-28T02:25:07;96659.72;;;2.10
48003;BMP280;33768;48.578;11.574;2023-12-28T02:28:11;96648.84;;;2.18
48003;BMP280;33768;48.578;11.574;2023-12-28T02:31:26;96648.34;;;2.34
48003;BMP280;33768;48.578;11.574;2023-12-28T02:34:37;96665.09;;;2.38
48003;BMP280;33768;48.578;11.574;2023-12-28T02:37:43;96658.59;;;2.45
48003;BMP280;33768;48.578;11.574;2023-12-28T02:40:49;96666.84;;;2.41
48003;BMP280;33768;48.578;11.574;2023-12-28T02:43:54;96666.69;;;2.30
48003;BMP280;33768;48.578;11.574;2023-12-28T02:46:58;96659.53;;;2.27
48003;BMP280;33768;48.578;11.574;2023-12-28T02:50:03;96659.13;;;2.34
48003;BMP280;33768;48.578;11.574;2023-12-28T02:53:09;96651.59;;;2.52
48003;BMP280;33768;48.578;11.574;2023-12-28T02:56:13;96651.31;;;2.65
48003;BMP280;33768;48.578;11.574;2023-12-28T02:59:19;96658.91;;;2.80
48003;BMP280;33768;48.578;11.574;2023-12-28T03:02:23;96662.75;;;2.94
48003;BMP280;33768;48.578;11.574;2023-12-28T03:05:27;96662.38;;;3.01
48003;BMP280;33768;48.578;11.574;2023-12-28T03:08:32;96658.59;;;2.93
48003;BMP280;33768;48.578;11.574;2023-12-28T03:11:36;96647.53;;;2.91
48003;BMP280;33768;48.578;11.574;2023-12-28T03:14:40;96650.44;;;3.07
48003;BMP280;33768;48.578;11.574;2023-12-28T03:17:45;96662.13;;;3.18
48003;BMP280;33768;48.578;11.574;2023-12-28T03:20:50;96658.41;;;3.16
48003;BMP280;33768;48.578;11.574;2023-12-28T03:23:54;96649.78;;;3.32
48003;BMP280;33768;48.578;11.574;2023-12-28T03:26:58;96650.66;;;3.43
48003;BMP280;33768;48.578;11.574;2023-12-28T03:30:03;96652.47;;;3.51
48003;BMP280;33768;48.578;11.574;2023-12-28T03:33:08;96642.75;;;3.59
48003;BMP280;33768;48.578;11.574;2023-12-28T03:36:19;96654.16;;;3.69
48003;BMP280;33768;48.578;11.574;2023-12-28T03:39:24;96660.63;;;3.76
48003;BMP280;33768;48.578;11.574;2023-12-28T03:42:29;96658.75;;;3.88
48003;BMP280;33768;48.578;11.574;2023-12-28T03:45:33;96660.38;;;4.00
48003;BMP280;33768;48.578;11.574;2023-12-28T03:48:37;96653.13;;;4.11
48003;BMP280;33768;48.578;11.574;2023-12-28T03:51:41;96651.66;;;4.15
48003;BMP280;33768;48.578;11.574;2023-12-28T03:54:46;96656.22;;;4.29
48003;BMP280;33768;48.578;11.574;2023-12-28T03:57:51;96664.84;;;4.33
48003;BMP280;33768;48.578;11.574;2023-12-28T04:00:55;96658.50;;;4.36
48003;BMP280;33768;48.578;11.574;2023-12-28T04:03:59;96661.72;;;4.40
48003;BMP280;33768;48.578;11.574;2023-12-28T04:07:03;96662.00;;;4.42
48003;BMP280;33768;48.578;11.574;2023-12-28T04:10:11;96661.03;;;4.45
48003;BMP280;33768;48.578;11.574;2023-12-28T04:13:16;96657.16;;;4.51
48003;BMP280;33768;48.578;11.574;2023-12-28T04:16:20;96659.91;;;4.57
48003;BMP280;33768;48.578;11.574;2023-12-28T04:19:24;96672.47;;;4.60
48003;BMP280;33768;48.578;11.574;2023-12-28T04:22:28;96663.88;;;4.61
48003;BMP280;33768;48.578;11.574;2023-12-28T04:25:33;96664.13;;;4.63
48003;BMP280;33768;48.578;11.574;2023-12-28T04:28:37;96668.53;;;4.61
48003;BMP280;33768;48.578;11.574;2023-12-28T04:31:42;96681.53;;;4.57
48003;BMP280;33768;48.578;11.574;2023-12-28T04:34:46;96688.09;;;4.50
48003;BMP280;33768;48.578;11.574;2023-12-28T04:37:51;96683.19;;;4.49
48003;BMP280;33768;48.578;11.574;2023-12-28T04:40:55;96687.38;;;4.50
48003;BMP280;33768;48.578;11.574;2023-12-28T04:43:59;96689.38;;;4.55
48003;BMP280;33768;48.578;11.574;2023-12-28T04:47:04;96686.25;;;4.62
48003;BMP280;33768;48.578;11.574;2023-12-28T04:50:08;96694.81;;;4.60
48003;BMP280;33768;48.578;11.574;2023-12-28T04:53:13;96687.44;;;4.61
48003;BMP280;33768;48.578;11.574;2023-12-28T04:56:20;96696.09;;;4.65
48003;BMP280;33768;48.578;11.574;2023-12-28T04:59:24;96694.59;;;4.64
48003;BMP280;33768;48.578;11.574;2023-12-28T05:02:28;96691.41;;;4.65
48003;BMP280;33768;48.578;11.574;2023-12-28T05:05:33;96689.75;;;4.73
48003;BMP280;33768;48.578;11.574;2023-12-28T05:08:37;96696.00;;;4.84
48003;BMP280;33768;48.578;11.574;2023-12-28T05:11:41;96700.91;;;4.86
48003;BMP280;33768;48.578;11.574;2023-12-28T05:14:45;96685.94;;;4.85
48003;BMP280;33768;48.578;11.574;2023-12-28T05:17:49;96694.06;;;4.90
48003;BMP280;33768;48.578;11.574;2023-12-28T05:20:54;96693.59;;;4.92
48003;BMP280;33768;48.578;11.574;2023-12-28T05:23:58;96703.16;;;4.87
48003;BMP280;33768;48.578;11.574;2023-12-28T05:27:02;96703.66;;;4.91
48003;BMP280;33768;48.578;11.574;2023-12-28T05:30:07;96706.38;;;4.91
48003;BMP280;33768;48.578;11.574;2023-12-28T05:33:11;96702.66;;;4.89
48003;BMP280;33768;48.578;11.574;2023-12-28T05:36:16;96708.06;;;4.89
48003;BMP280;33768;48.578;11.574;2023-12-28T05:39:20;96696.50;;;4.88
48003;BMP280;33768;48.578;11.574;2023-12-28T05:42:24;96684.66;;;4.80
48003;BMP280;33768;48.578;11.574;2023-12-28T05:45:28;96679.16;;;4.69
48003;BMP280;33768;48.578;11.574;2023-12-28T05:48:33;96689.19;;;4.64
48003;BMP280;33768;48.578;11.574;2023-12-28T05:51:38;96687.69;;;4.57
48003;BMP280;33768;48.578;11.574;2023-12-28T05:54:44;96687.38;;;4.50
48003;BMP280;33768;48.578;11.574;2023-12-28T05:57:48;96685.63;;;4.47
48003;BMP280;33768;48.578;11.574;2023-12-28T06:00:52;96693.47;;;4.45
48003;BMP280;33768;48.578;11.574;2023-12-28T06:03:58;96697.44;;;4.49
48003;BMP280;33768;48.578;11.574;2023-12-28T06:07:03;96697.78;;;4.62
48003;BMP280;33768;48.578;11.574;2023-12-28T06:10:08;96703.31;;;4.78
48003;BMP280;33768;48.578;11.574;2023-12-28T06:13:12;96707.78;;;4.81
48003;BMP280;33768;48.578;11.574;2023-12-28T06:16:16;96701.41;;;4.84
48003;BMP280;33768;48.578;11.574;2023-12-28T06:19:21;96708.53;;;4.82
48003;BMP280;33768;48.578;11.574;2023-12-28T06:22:25;96700.56;;;4.73
48003;BMP280;33768;48.578;11.574;2023-12-28T06:25:31;96703.25;;;4.67
48003;BMP280;33768;48.578;11.574;2023-12-28T06:28:36;96698.38;;;4.71
48003;BMP280;33768;48.578;11.574;2023-12-28T06:31:39;96704.28;;;4.75
48003;BMP280;33768;48.578;11.574;2023-12-28T06:34:44;96703.63;;;4.86
48003;BMP280;33768;48.578;11.574;2023-12-28T06:37:49;96700.97;;;4.91
48003;BMP280;33768;48.578;11.574;2023-12-28T06:40:53;96702.22;;;4.96
48003;BMP280;33768;48.578;11.574;2023-12-28T06:43:57;96708.16;;;4.99
48003;BMP280;33768;48.578;11.574;2023-12-28T06:47:01;96698.09;;;5.00
48003;BMP280;33768;48.578;11.574;2023-12-28T06:50:06;96693.19;;;5.04
48003;BMP280;33768;48.578;11.574;2023-12-28T06:53:10;96690.50;;;5.04
48003;BMP280;33768;48.578;11.574;2023-12-28T06:56:15;96690.50;;;5.04
48003;BMP280;33768;48.578;11.574;2023-12-28T06:59:19;96691.22;;;5.04
48003;BMP280;33768;48.578;11.574;2023-12-28T07:02:22;96697.84;;;5.03
48003;BMP280;33768;48.578;11.574;2023-12-28T07:05:27;96699.81;;;5.03
48003;BMP280;33768;48.578;11.574;2023-12-28T07:08:31;96696.13;;;5.06
48003;BMP280;33768;48.578;11.574;2023-12-28T07:11:35;96708.22;;;5.10
48003;BMP280;33768;48.578;11.574;2023-12-28T07:14:39;96703.16;;;5.23
48003;BMP280;33768;48.578;11.574;2023-12-28T07:17:43;96715.78;;;5.37
48003;BMP280;33768;48.578;11.574;2023-12-28T07:20:48;96713.41;;;5.50
48003;BMP280;33768;48.578;11.574;2023-12-28T07:23:54;96723.00;;;5.56
48003;BMP280;33768;48.578;11.574;2023-12-28T07:26:58;96720.13;;;5.65
48003;BMP280;33768;48.578;11.574;2023-12-28T07:30:02;96732.47;;;5.71
48003;BMP280;33768;48.578;11.574;2023-12-28T07:33:07;96720.91;;;5.76
48003;BMP280;33768;48.578;11.574;2023-12-28T07:36:11;96728.13;;;5.85
48003;BMP280;33768;48.578;11.574;2023-12-28T07:39:15;96742.22;;;6.05
48003;BMP280;33768;48.578;11.574;2023-12-28T07:42:19;96728.19;;;6.17
48003;BMP280;33768;48.578;11.574;2023-12-28T07:45:23;96729.44;;;6.22
48003;BMP280;33768;48.578;11.574;2023-12-28T07:48:28;96734.16;;;6.32
48003;BMP280;33768;48.578;11.574;2023-12-28T07:51:34;96730.75;;;6.48
48003;BMP280;33768;48.578;11.574;2023-12-28T07:54:38;96721.16;;;6.63
48003;BMP280;33768;48.578;11.574;2023-12-28T07:57:42;96725.84;;;6.84
48003;BMP280;33768;48.578;11.574;2023-12-28T08:00:47;96719.94;;;7.02
48003;BMP280;33768;48.578;11.574;2023-12-28T08:03:51;96730.78;;;7.29
48003;BMP280;33768;48.578;11.574;2023-12-28T08:06:55;96741.06;;;7.63
48003;BMP280;33768;48.578;11.574;2023-12-28T08:10:00;96740.69;;;7.99
48003;BMP280;33768;48.578;11.574;2023-12-28T08:13:05;96740.03;;;8.38
48003;BMP280;33768;48.578;11.574;2023-12-28T08:16:09;96739.63;;;8.63
48003;BMP280;33768;48.578;11.574;2023-12-28T08:19:13;96751.56;;;8.89
48003;BMP280;33768;48.578;11.574;2023-12-28T08:22:17;96764.16;;;9.27
48003;BMP280;33768;48.578;11.574;2023-12-28T08:25:22;96767.59;;;9.80
48003;BMP280;33768;48.578;11.574;2023-12-28T08:28:27;96774.47;;;10.33
48003;BMP280;33768;48.578;11.574;2023-12-28T08:31:31;96783.22;;;10.63
48003;BMP280;33768;48.578;11.574;2023-12-28T08:34:35;96770.78;;;10.49
48003;BMP280;33768;48.578;11.574;2023-12-28T08:37:39;96768.69;;;10.19
48003;BMP280;33768;48.578;11.574;2023-12-28T08:40:45;96771.50;;;9.90
48003;BMP280;33768;48.578;11.574;2023-12-28T08:43:50;96771.47;;;9.66
48003;BMP280;33768;48.578;11.574;2023-12-28T08:46:56;96775.03;;;9.56
48003;BMP280;33768;48.578;11.574;2023-12-28T08:50:00;96767.19;;;9.47
48003;BMP280;33768;48.578;11.574;2023-12-28T08:53:04;96774.97;;;9.37
48003;BMP280;33768;48.578;11.574;2023-12-28T08:56:13;96771.53;;;9.32
48003;BMP280;33768;48.578;11.574;2023-12-28T08:59:19;96775.34;;;9.23
48003;BMP280;33768;48.578;11.574;2023-12-28T09:02:23;96773.41;;;9.18
48003;BMP280;33768;48.578;11.574;2023-12-28T09:05:27;96777.38;;;9.17
48003;BMP280;33768;48.578;11.574;2023-12-28T09:08:31;96782.53;;;9.21
48003;BMP280;33768;48.578;11.574;2023-12-28T09:11:36;96773.53;;;9.31
48003;BMP280;33768;48.578;11.574;2023-12-28T09:14:39;96777.63;;;9.43
48003;BMP280;33768;48.578;11.574;2023-12-28T09:17:44;96773.59;;;9.49
48003;BMP280;33768;48.578;11.574;2023-12-28T09:20:48;96779.41;;;9.64
48003;BMP280;33768;48.578;11.574;2023-12-28T09:23:54;96789.69;;;9.76
48003;BMP280;33768;48.578;11.574;2023-12-28T09:26:58;96788.84;;;9.87
48003;BMP280;33768;48.578;11.574;2023-12-28T09:30:03;96784.84;;;9.88
48003;BMP280;33768;48.578;11.574;2023-12-28T09:33:07;96780.38;;;9.96
48003;BMP280;33768;48.578;11.574;2023-12-28T09:36:12;96781.03;;;10.01
48003;BMP280;33768;48.578;11.574;2023-12-28T09:39:17;96779.53;;;9.77
48003;BMP280;33768;48.578;11.574;2023-12-28T09:42:29;96777.38;;;9.70
48003;BMP280;33768;48.578;11.574;2023-12-28T09:45:34;96771.13;;;9.75
48003;BMP280;33768;48.578;11.574;2023-12-28T09:48:38;96774.75;;;9.59
48003;BMP280;33768;48.578;11.574;2023-12-28T09:51:42;96755.00;;;9.24
48003;BMP280;33768;48.578;11.574;2023-12-28T09:54:46;96771.88;;;8.88
48003;BMP280;33768;48.578;11.574;2023-12-28T09:57:51;96774.56;;;8.59
48003;BMP280;33768;48.578;11.574;2023-12-28T10:00:55;96787.19;;;8.51
48003;BMP280;33768;48.578;11.574;2023-12-28T10:04:00;96783.28;;;8.47
48003;BMP280;33768;48.578;11.574;2023-12-28T10:07:06;96774.34;;;8.46
48003;BMP280;33768;48.578;11.574;2023-12-28T10:10:11;96777.09;;;8.41
48003;BMP280;33768;48.578;11.574;2023-12-28T10:13:15;96777.06;;;8.46
48003;BMP280;33768;48.578;11.574;2023-12-28T10:16:20;96771.88;;;8.48
48003;BMP280;33768;48.578;11.574;2023-12-28T10:19:24;96764.44;;;8.54
48003;BMP280;33768;48.578;11.574;2023-12-28T10:22:29;96755.88;;;8.74
48003;BMP280;33768;48.578;11.574;2023-12-28T10:25:33;96752.09;;;8.88
48003;BMP280;33768;48.578;11.574;2023-12-28T10:28:37;96750.00;;;8.99
48003;BMP280;33768;48.578;11.574;2023-12-28T10:31:44;96752.16;;;9.11
48003;BMP280;33768;48.578;11.574;2023-12-28T10:34:53;96742.66;;;9.23
48003;BMP280;33768;48.578;11.574;2023-12-28T10:38:00;96736.91;;;9.27
48003;BMP280;33768;48.578;11.574;2023-12-28T10:41:08;96738.53;;;9.40
48003;BMP280;33768;48.578;11.574;2023-12-28T10:44:17;96734.97;;;9.51
48003;BMP280;33768;48.578;11.574;2023-12-28T10:47:27;96729.38;;;9.62
48003;BMP280;33768;48.578;11.574;2023-12-28T10:57:22;96719.41;;;9.88
48003;BMP280;33768;48.578;11.574;2023-12-28T11:00:36;96715.88;;;9.98
48003;BMP280;33768;48.578;11.574;2023-12-28T11:03:45;96706.91;;;10.03
48003;BMP280;33768;48.578;11.574;2023-12-28T11:06:52;96704.31;;;10.10
48003;BMP280;33768;48.578;11.574;2023-12-28T11:09:57;96698.34;;;10.12
48003;BMP280;33768;48.578;11.574;2023-12-28T11:13:03;96686.13;;;10.18
48003;BMP280;33768;48.578;11.574;2023-12-28T11:16:08;96692.97;;;10.25
48003;BMP280;33768;48.578;11.574;2023-12-28T11:19:13;96684.28;;;10.26
48003;BMP280;33768;48.578;11.574;2023-12-28T11:22:17;96684.63;;;10.35
48003;BMP280;33768;48.578;11.574;2023-12-28T11:25:22;96681.97;;;10.48
48003;BMP280;33768;48.578;11.574;2023-12-28T11:28:26;96680.78;;;10.62
48003;BMP280;33768;48.578;11.574;2023-12-28T11:31:34;96678.50;;;10.66
48003;BMP280;33768;48.578;11.574;2023-12-28T11:34:39;96662.78;;;10.54
48003;BMP280;33768;48.578;11.574;2023-12-28T11:37:46;96659.69;;;10.44
48003;BMP280;33768;48.578;11.574;2023-12-28T11:40:52;96672.25;;;10.34
48003;BMP280;33768;48.578;11.574;2023-12-28T11:44:04;96667.91;;;10.26
48003;BMP280;33768;48.578;11.574;2023-12-28T11:47:17;96656.41;;;10.15
48003;BMP280;33768;48.578;11.574;2023-12-28T11:50:24;96667.69;;;10.06
48003;BMP280;33768;48.578;11.574;2023-12-28T11:53:28;96672.03;;;9.72
48003;BMP280;33768;48.578;11.574;2023-12-28T11:56:32;96672.19;;;9.38
48003;BMP280;33768;48.578;11.574;2023-12-28T11:59:37;96662.28;;;9.11
48003;BMP280;33768;48.578;11.574;2023-12-28T12:02:44;96663.66;;;9.00
48003;BMP280;33768;48.578;11.574;2023-12-28T12:05:52;96662.72;;;8.92
48003;BMP280;33768;48.578;11.574;2023-12-28T12:08:56;96666.69;;;8.91
48003;BMP280;33768;48.578;11.574;2023-12-28T12:12:01;96656.22;;;9.00
48003;BMP280;33768;48.578;11.574;2023-12-28T12:15:06;96659.13;;;9.07
48003;BMP280;33768;48.578;11.574;2023-12-28T12:18:11;96670.22;;;9.09
48003;BMP280;33768;48.578;11.574;2023-12-28T12:21:15;96671.25;;;9.06
48003;BMP280;33768;48.578;11.574;2023-12-28T12:24:21;96661.59;;;9.05
48003;BMP280;33768;48.578;11.574;2023-12-28T12:27:27;96657.69;;;9.01
48003;BMP280;33768;48.578;11.574;2023-12-28T12:30:31;96655.19;;;9.03
48003;BMP280;33768;48.578;11.574;2023-12-28T12:33:35;96670.00;;;9.07
48003;BMP280;33768;48.578;11.574;2023-12-28T12:36:39;96671.97;;;9.07
48003;BMP280;33768;48.578;11.574;2023-12-28T12:39:43;96665.56;;;9.04
48003;BMP280;33768;48.578;11.574;2023-12-28T12:42:52;96659.13;;;9.07
48003;BMP280;33768;48.578;11.574;2023-12-28T12:45:57;96653.84;;;9.15
48003;BMP280;33768;48.578;11.574;2023-12-28T12:49:01;96646.06;;;9.24
48003;BMP280;33768;48.578;11.574;2023-12-28T12:52:07;96648.16;;;9.36
48003;BMP280;33768;48.578;11.574;2023-12-28T12:55:12;96636.69;;;9.43
48003;BMP280;33768;48.578;11.574;2023-12-28T12:58:16;96638.31;;;9.52
48003;BMP280;33768;48.578;11.574;2023-12-28T13:01:22;96639.53;;;9.56
48003;BMP280;33768;48.578;11.574;2023-12-28T13:04:26;96632.78;;;9.63
48003;BMP280;33768;48.578;11.574;2023-12-28T13:07:31;96628.78;;;9.64
48003;BMP280;33768;48.578;11.574;2023-12-28T13:10:36;96633.28;;;9.61
48003;BMP280;33768;48.578;11.574;2023-12-28T13:13:39;96629.09;;;9.60
48003;BMP280;33768;48.578;11.574;2023-12-28T13:16:44;96626.94;;;9.53
48003;BMP280;33768;48.578;11.574;2023-12-28T13:19:48;96633.09;;;9.54
48003;BMP280;33768;48.578;11.574;2023-12-28T13:22:52;96639.44;;;9.62
48003;BMP280;33768;48.578;11.574;2023-12-28T13:25:57;96631.75;;;9.66
48003;BMP280;33768;48.578;11.574;2023-12-28T13:29:02;96632.09;;;9.57
48003;BMP280;33768;48.578;11.574;2023-12-28T13:32:06;96620.28;;;9.49
48003;BMP280;33768;48.578;11.574;2023-12-28T13:35:12;96622.84;;;9.41
48003;BMP280;33768;48.578;11.574;2023-12-28T13:38:16;96615.72;;;9.38
48003;BMP280;33768;48.578;11.574;2023-12-28T13:41:20;96621.44;;;9.35
48003;BMP280;33768;48.578;11.574;2023-12-28T13:44:24;96624.84;;;9.41
48003;BMP280;33768;48.578;11.574;2023-12-28T13:47:28;96624.84;;;9.41
48003;BMP280;33768;48.578;11.574;2023-12-28T13:50:33;96624.72;;;9.28
48003;BMP280;33768;48.578;11.574;2023-12-28T13:53:37;96634.72;;;9.20
48003;BMP280;33768;48.578;11.574;2023-12-28T13:56:44;96620.09;;;9.23
48003;BMP280;33768;48.578;11.574;2023-12-28T13:59:48;96626.31;;;9.18
48003;BMP280;33768;48.578;11.574;2023-12-28T14:02:52;96620.88;;;9.18
48003;BMP280;33768;48.578;11.574;2023-12-28T14:05:57;96635.00;;;9.17
48003;BMP280;33768;48.578;11.574;2023-12-28T14:09:01;96644.91;;;9.14
48003;BMP280;33768;48.578;11.574;2023-12-28T14:12:05;96637.59;;;9.04
48003;BMP280;33768;48.578;11.574;2023-12-28T14:15:10;96640.16;;;8.97
48003;BMP280;33768;48.578;11.574;2023-12-28T14:18:14;96637.72;;;8.93
48003;BMP280;33768;48.578;11.574;2023-12-28T14:21:18;96638.22;;;8.92
48003;BMP280;33768;48.578;11.574;2023-12-28T14:24:23;96635.84;;;8.83
48003;BMP280;33768;48.578;11.574;2023-12-28T14:27:38;96646.47;;;8.81
48003;BMP280;33768;48.578;11.574;2023-12-28T14:31:10;96649.97;;;8.76
48003;BMP280;33768;48.578;11.574;2023-12-28T14:34:30;96651.09;;;8.62
48003;BMP280;33768;48.578;11.574;2023-12-28T14:37:52;96657.38;;;8.52
48003;BMP280;33768;48.578;11.574;2023-12-28T14:41:00;96645.53;;;8.44
48003;BMP280;33768;48.578;11.574;2023-12-28T14:44:07;96656.00;;;8.35
48003;BMP280;33768;48.578;11.574;2023-12-28T14:47:19;96651.34;;;8.30
48003;BMP280;33768;48.578;11.574;2023-12-28T14:50:32;96650.31;;;8.33
48003;BMP280;33768;48.578;11.574;2023-12-28T14:53:53;96653.56;;;8.26
48003;BMP280;33768;48.578;11.574;2023-12-28T14:57:02;96658.28;;;8.25
48003;BMP280;33768;48.578;11.574;2023-12-28T15:00:07;96664.00;;;8.22
48003;BMP280;33768;48.578;11.574;2023-12-28T15:03:11;96662.28;;;8.19
48003;BMP280;33768;48.578;11.574;2023-12-28T15:06:15;96667.47;;;8.17
48003;BMP280;33768;48.578;11.574;2023-12-28T15:09:20;96668.75;;;8.11
48003;BMP280;33768;48.578;11.574;2023-12-28T15:12:25;96661.09;;;8.09
48003;BMP280;33768;48.578;11.574;2023-12-28T15:15:32;96663.59;;;8.07
48003;BMP280;33768;48.578;11.574;2023-12-28T15:18:36;96659.34;;;8.06
48003;BMP280;33768;48.578;11.574;2023-12-28T15:21:41;96657.13;;;8.05
48003;BMP280;33768;48.578;11.574;2023-12-28T15:24:45;96648.00;;;8.02
48003;BMP280;33768;48.578;11.574;2023-12-28T15:27:50;96641.84;;;8.02
48003;BMP280;33768;48.578;11.574;2023-12-28T15:30:54;96652.22;;;7.98
48003;BMP280;33768;48.578;11.574;2023-12-28T15:33:58;96639.16;;;7.96
48003;BMP280;33768;48.578;11.574;2023-12-28T15:37:03;96639.84;;;8.02
48003;BMP280;33768;48.578;11.574;2023-12-28T15:40:07;96641.06;;;8.01
48003;BMP280;33768;48.578;11.574;2023-12-28T15:43:12;96638.88;;;8.00
48003;BMP280;33768;48.578;11.574;2023-12-28T15:46:16;96629.97;;;8.05
48003;BMP280;33768;48.578;11.574;2023-12-28T15:49:21;96628.94;;;8.13
48003;BMP280;33768;48.578;11.574;2023-12-28T15:52:25;96633.16;;;8.14
48003;BMP280;33768;48.578;11.574;2023-12-28T15:55:29;96628.94;;;8.13
48003;BMP280;33768;48.578;11.574;2023-12-28T15:58:33;96628.94;;;8.13
48003;BMP280;33768;48.578;11.574;2023-12-28T16:01:37;96625.19;;;8.16
48003;BMP280;33768;48.578;11.574;2023-12-28T16:04:41;96619.78;;;8.16
48003;BMP280;33768;48.578;11.574;2023-12-28T16:07:45;96612.59;;;8.18
48003;BMP280;33768;48.578;11.574;2023-12-28T16:10:50;96614.06;;;8.19
48003;BMP280;33768;48.578;11.574;2023-12-28T16:13:54;96616.28;;;8.21
48003;BMP280;33768;48.578;11.574;2023-12-28T16:16:59;96618.94;;;8.26
48003;BMP280;33768;48.578;11.574;2023-12-28T16:20:03;96622.38;;;8.32
48003;BMP280;33768;48.578;11.574;2023-12-28T16:23:08;96622.84;;;8.36
48003;BMP280;33768;48.578;11.574;2023-12-28T16:26:13;96628.03;;;8.40
48003;BMP280;33768;48.578;11.574;2023-12-28T16:29:17;96632.22;;;8.41
48003;BMP280;33768;48.578;11.574;2023-12-28T16:32:22;96640.09;;;8.44
48003;BMP280;33768;48.578;11.574;2023-12-28T16:35:27;96624.97;;;8.48
48003;BMP280;33768;48.578;11.574;2023-12-28T16:38:32;96624.44;;;8.55
48003;BMP280;33768;48.578;11.574;2023-12-28T16:41:38;96626.88;;;8.59
48003;BMP280;33768;48.578;11.574;2023-12-28T16:44:42;96627.34;;;8.63
48003;BMP280;33768;48.578;11.574;2023-12-28T16:47:47;96626.03;;;8.69
48003;BMP280;33768;48.578;11.574;2023-12-28T16:51:16;96636.72;;;8.67
48003;BMP280;33768;48.578;11.574;2023-12-28T16:55:01;96636.91;;;8.69
48003;BMP280;33768;48.578;11.574;2023-12-28T16:58:05;96639.09;;;8.76
48003;BMP280;33768;48.578;11.574;2023-12-28T17:01:10;96630.69;;;8.79
48003;BMP280;33768;48.578;11.574;2023-12-28T17:04:14;96625.50;;;8.76
48003;BMP280;33768;48.578;11.574;2023-12-28T17:07:19;96626.28;;;8.71
48003;BMP280;33768;48.578;11.574;2023-12-28T17:10:23;96618.72;;;8.59
48003;BMP280;33768;48.578;11.574;2023-12-28T17:13:28;96623.19;;;8.56
48003;BMP280;33768;48.578;11.574;2023-12-28T17:16:33;96629.88;;;8.55
48003;BMP280;33768;48.578;11.574;2023-12-28T17:19:37;96623.97;;;8.51
48003;BMP280;33768;48.578;11.574;2023-12-28T17:22:43;96642.31;;;8.45
48003;BMP280;33768;48.578;11.574;2023-12-28T17:26:18;96636.88;;;8.45
48003;BMP280;33768;48.578;11.574;2023-12-28T17:29:26;96637.59;;;8.46
48003;BMP280;33768;48.578;11.574;2023-12-28T17:32:36;96633.91;;;8.43
48003;BMP280;33768;48.578;11.574;2023-12-28T17:35:41;96635.44;;;8.39
48003;BMP280;33768;48.578;11.574;2023-12-28T17:38:46;96614.91;;;8.38
48003;BMP280;33768;48.578;11.574;2023-12-28T17:41:53;96615.66;;;8.39
48003;BMP280;33768;48.578;11.574;2023-12-28T17:44:58;96623.13;;;8.33
48003;BMP280;33768;48.578;11.574;2023-12-28T17:48:08;96613.03;;;8.28
48003;BMP280;33768;48.578;11.574;2023-12-28T17:51:15;96617.25;;;8.23
48003;BMP280;33768;48.578;11.574;2023-12-28T17:54:19;96615.31;;;8.18